Blair, Illinois
Current Conditions -  °F | °C
As of 11:55 AM on Sunday 21 Dec 2014 (Local Time) from KFOA Reporting Station
Clear Clear  
Wind Chill: 32°   Ceiling: Unl
Heat Index: 38°   Visibility: 10mi
Dew Point: 29°   Wind: 9mph
Humidity: 70%   Direction: 130°SE
Pressure: 30.21"   Gusts: NA
Location:  38.8267°N, 88.5024°W
Report Text: KFOA 211755Z AUTO 13008KT 10SM CLR 03/M02 A3021 RMK AO2 T00341016 10034 21018
Loading
Personal Weather Stations






























Interactive Weather Map New forecast layout! Learn more

10-Day Weather Forecast

Advertisements
Track Severe Weather on mobile